createdAt,value
2022-12-20T00:01:13.967Z,12.63
2022-12-20T00:03:40.622Z,12.73
2022-12-20T00:06:07.715Z,12.90
2022-12-20T00:08:35.108Z,11.77
2022-12-20T00:11:03.453Z,13.20
2022-12-20T00:13:30.077Z,12.50
2022-12-20T00:16:12.237Z,13.35
2022-12-20T00:18:40.414Z,12.30
2022-12-20T00:21:08.740Z,12.57
2022-12-20T00:23:36.370Z,12.65
2022-12-20T00:26:12.394Z,12.93
2022-12-20T00:28:39.759Z,13.15
2022-12-20T00:31:07.620Z,13.55
2022-12-20T00:33:35.356Z,13.25
2022-12-20T00:36:02.347Z,13.35
2022-12-20T00:38:29.063Z,12.90
2022-12-20T00:41:08.270Z,13.30
2022-12-20T00:43:37.292Z,12.73
2022-12-20T00:46:04.633Z,12.23
2022-12-20T00:48:32.848Z,12.23
2022-12-20T00:51:00.919Z,12.32
2022-12-20T00:53:28.320Z,12.75
2022-12-20T00:55:55.674Z,12.80
2022-12-20T00:58:22.629Z,13.38
2022-12-20T01:00:55.922Z,13.38
2022-12-20T01:03:24.684Z,13.10
2022-12-20T01:05:53.147Z,14.27
2022-12-20T01:08:20.782Z,13.80
2022-12-20T01:10:47.876Z,12.73
2022-12-20T01:13:14.723Z,13.82
2022-12-20T01:15:41.352Z,13.52
2022-12-20T01:18:08.032Z,12.50
2022-12-20T01:20:34.761Z,13.80
2022-12-20T01:23:01.410Z,12.70
2022-12-20T01:25:28.229Z,14.30
2022-12-20T01:27:54.954Z,13.75
2022-12-20T01:30:21.824Z,14.35
2022-12-20T01:32:48.500Z,13.20
2022-12-20T01:35:16.049Z,12.95
2022-12-20T01:37:42.806Z,14.07
2022-12-20T01:40:10.494Z,14.05
2022-12-20T01:42:37.601Z,13.70
2022-12-20T01:45:08.057Z,14.23
2022-12-20T01:47:36.959Z,13.70
2022-12-20T01:50:05.291Z,14.10
2022-12-20T01:52:41.319Z,13.95
2022-12-20T01:55:14.651Z,14.55
2022-12-20T01:57:48.528Z,14.05
2022-12-20T02:00:16.793Z,14.52
2022-12-20T02:02:47.039Z,13.50
2022-12-20T02:05:14.870Z,14.35
2022-12-20T02:07:46.022Z,14.13
2022-12-20T02:10:17.410Z,12.93
2022-12-20T02:12:46.339Z,14.43
2022-12-20T02:15:19.787Z,14.60
2022-12-20T02:18:11.251Z,14.25
2022-12-20T02:20:47.083Z,13.60
2022-12-20T02:23:25.215Z,13.82
2022-12-20T02:26:10.789Z,14.73
2022-12-20T02:29:03.166Z,13.85
2022-12-20T02:31:37.992Z,14.60
2022-12-20T02:34:05.925Z,13.65
2022-12-20T02:36:32.631Z,14.05
2022-12-20T02:38:59.391Z,14.13
2022-12-20T02:41:37.660Z,14.02
2022-12-20T02:44:27.490Z,14.70
2022-12-20T02:46:54.592Z,13.63
2022-12-20T02:49:24.002Z,14.35
2022-12-20T02:51:52.486Z,13.88
2022-12-20T02:54:19.567Z,13.80
2022-12-20T02:56:54.102Z,14.30
2022-12-20T02:59:29.706Z,14.05
2022-12-20T03:01:57.384Z,14.82
2022-12-20T03:04:29.527Z,14.13
2022-12-20T03:07:08.248Z,13.88
2022-12-20T03:09:37.981Z,13.20
2022-12-20T03:12:05.606Z,14.50
2022-12-20T03:14:35.091Z,12.85
2022-12-20T03:17:06.030Z,13.73
2022-12-20T03:19:32.949Z,13.10
2022-12-20T03:21:59.907Z,13.10
2022-12-20T03:24:26.715Z,13.20
2022-12-20T03:26:54.422Z,13.57
2022-12-20T03:29:23.733Z,13.68
2022-12-20T03:31:50.355Z,13.45
2022-12-20T03:34:17.167Z,12.85
2022-12-20T03:36:44.136Z,13.50
2022-12-20T03:39:10.975Z,13.07
2022-12-20T03:41:40.598Z,13.43
2022-12-20T03:44:09.448Z,13.10
2022-12-20T03:46:36.514Z,13.82
2022-12-20T03:49:04.510Z,13.40
2022-12-20T03:51:32.263Z,13.60
2022-12-20T03:53:59.091Z,13.13
2022-12-20T03:56:40.567Z,12.98
2022-12-20T03:59:08.541Z,13.20
2022-12-20T04:01:36.787Z,13.27
2022-12-20T04:04:04.862Z,12.95
2022-12-20T04:06:31.791Z,13.05
2022-12-20T04:08:58.637Z,14.20
2022-12-20T04:11:30.407Z,14.00
2022-12-20T04:14:05.220Z,13.68
2022-12-20T04:16:33.635Z,13.95
2022-12-20T04:19:01.525Z,14.82
2022-12-20T04:21:34.520Z,14.13
2022-12-20T04:24:02.464Z,14.07
2022-12-20T04:26:38.194Z,15.00
2022-12-20T04:29:05.110Z,14.27
2022-12-20T04:31:33.001Z,14.52
2022-12-20T04:34:00.226Z,15.18
2022-12-20T04:36:27.137Z,14.60
2022-12-20T04:38:55.366Z,14.15
2022-12-20T04:41:24.710Z,14.57
2022-12-20T04:43:58.274Z,15.60
2022-12-20T04:46:33.386Z,14.93
2022-12-20T04:49:01.185Z,14.70
2022-12-20T04:51:30.826Z,14.85
2022-12-20T04:53:57.642Z,14.90
2022-12-20T04:56:42.290Z,15.20
2022-12-20T04:59:12.617Z,13.57
2022-12-20T05:01:42.214Z,14.38
2022-12-20T05:04:09.978Z,14.10
2022-12-20T05:06:37.658Z,14.70
2022-12-20T05:09:04.633Z,14.18
2022-12-20T05:11:32.983Z,13.80
2022-12-20T05:14:00.200Z,14.15
2022-12-20T05:16:26.884Z,13.65
2022-12-20T05:18:54.141Z,14.07
2022-12-20T05:21:39.694Z,14.27
2022-12-20T05:24:25.791Z,13.55
2022-12-20T05:27:07.968Z,13.88
2022-12-20T05:29:34.574Z,14.50
2022-12-20T05:32:01.302Z,14.55
2022-12-20T05:34:28.283Z,13.60
2022-12-20T05:36:56.076Z,13.50
2022-12-20T05:39:28.065Z,14.65
2022-12-20T05:41:58.374Z,40.72
2022-12-20T05:44:26.254Z,35.20
2022-12-20T05:46:56.469Z,31.08
2022-12-20T05:49:28.372Z,25.98
2022-12-20T05:51:56.394Z,26.38
2022-12-20T05:54:25.657Z,24.15
2022-12-20T05:57:12.637Z,24.65
2022-12-20T05:59:41.079Z,25.63
2022-12-20T06:02:16.766Z,27.95
2022-12-20T06:04:45.073Z,29.35
2022-12-20T06:07:21.990Z,27.45
2022-12-20T06:09:52.985Z,26.50
2022-12-20T06:12:24.747Z,25.95
2022-12-20T06:14:52.359Z,24.85
2022-12-20T06:17:21.833Z,24.13
2022-12-20T06:19:48.532Z,23.42
2022-12-20T06:22:16.926Z,23.35
2022-12-20T06:24:56.471Z,21.95
2022-12-20T06:27:30.707Z,22.13
2022-12-20T06:30:12.829Z,21.30
2022-12-20T06:32:58.178Z,21.50
2022-12-20T06:35:24.920Z,20.92
2022-12-20T06:37:55.072Z,21.30
2022-12-20T06:40:22.384Z,21.65
2022-12-20T06:42:50.549Z,20.58
2022-12-20T06:45:19.519Z,19.95
2022-12-20T06:47:46.427Z,19.42
2022-12-20T06:50:13.256Z,20.40
2022-12-20T06:52:41.263Z,19.25
2022-12-20T06:55:08.256Z,19.10
2022-12-20T06:57:39.063Z,19.40
2022-12-20T07:00:08.690Z,19.42
2022-12-20T07:02:35.737Z,19.08
2022-12-20T07:05:02.432Z,18.08
2022-12-20T07:07:29.085Z,18.10
2022-12-20T07:09:55.716Z,18.77
2022-12-20T07:12:23.133Z,18.77
2022-12-20T07:14:49.813Z,18.20
2022-12-20T07:17:16.537Z,18.30
2022-12-20T07:19:50.273Z,18.30
2022-12-20T07:22:17.717Z,18.38
2022-12-20T07:24:44.319Z,18.33
2022-12-20T07:27:11.732Z,18.40
2022-12-20T07:29:40.701Z,17.48
2022-12-20T07:32:08.168Z,17.90
2022-12-20T07:34:36.984Z,18.17
2022-12-20T07:37:04.160Z,17.95
2022-12-20T07:39:30.931Z,17.33
2022-12-20T07:41:58.151Z,17.88
2022-12-20T07:44:24.953Z,17.83
2022-12-20T07:46:51.757Z,18.20
2022-12-20T07:49:18.407Z,17.52
2022-12-20T07:51:55.418Z,17.10
2022-12-20T07:54:28.282Z,17.58
2022-12-20T07:56:59.079Z,17.70
2022-12-20T07:59:29.374Z,17.73
2022-12-20T08:02:00.900Z,17.00
2022-12-20T08:04:31.215Z,17.23
2022-12-20T08:06:58.806Z,17.60
2022-12-20T08:09:26.120Z,16.65
2022-12-20T08:11:53.452Z,17.35
2022-12-20T08:14:20.380Z,17.13
2022-12-20T08:16:47.049Z,16.88
2022-12-20T08:19:13.828Z,16.58
2022-12-20T08:21:40.407Z,16.48
2022-12-20T08:24:08.281Z,16.55
2022-12-20T08:26:39.542Z,16.48
2022-12-20T08:29:06.778Z,16.33
2022-12-20T08:31:33.600Z,17.02
2022-12-20T08:34:00.479Z,17.00
2022-12-20T08:36:27.200Z,17.20
2022-12-20T08:38:53.801Z,17.10
2022-12-20T08:41:20.592Z,16.63
2022-12-20T08:43:47.352Z,17.02
2022-12-20T08:46:14.293Z,16.52
2022-12-20T08:48:41.118Z,16.65
2022-12-20T08:51:09.957Z,17.50
2022-12-20T08:53:37.245Z,16.50
2022-12-20T08:56:08.158Z,16.48
2022-12-20T08:58:35.925Z,17.33
2022-12-20T09:01:06.913Z,16.33
2022-12-20T09:03:34.977Z,16.13
2022-12-20T09:06:04.484Z,16.20
2022-12-20T09:08:31.096Z,16.67
2022-12-20T09:11:08.074Z,15.88
2022-12-20T09:13:39.621Z,16.88
2022-12-20T09:16:11.941Z,15.93
2022-12-20T09:18:38.780Z,16.30
2022-12-20T09:21:07.114Z,15.88
2022-12-20T09:23:35.443Z,15.63
2022-12-20T09:26:04.126Z,15.32
2022-12-20T09:28:31.341Z,16.00
2022-12-20T09:31:02.163Z,15.55
2022-12-20T09:33:30.818Z,16.17
2022-12-20T09:35:58.509Z,15.85
2022-12-20T09:38:25.597Z,15.52
2022-12-20T09:40:55.399Z,15.82
2022-12-20T09:43:22.617Z,16.55
2022-12-20T09:45:53.213Z,15.45
2022-12-20T09:48:29.403Z,15.70
2022-12-20T09:51:14.893Z,15.05
2022-12-20T09:53:56.679Z,15.65
2022-12-20T09:56:47.572Z,15.82
2022-12-20T09:59:18.413Z,15.05
2022-12-20T10:01:47.098Z,15.35
2022-12-20T10:04:28.913Z,15.65
2022-12-20T10:07:10.949Z,15.52
2022-12-20T10:10:08.488Z,15.55
2022-12-20T10:12:56.869Z,15.13
2022-12-20T10:15:57.667Z,15.32
2022-12-20T10:18:46.402Z,15.48
2022-12-20T10:21:30.853Z,15.48
2022-12-20T10:24:02.622Z,15.47
2022-12-20T10:26:31.552Z,15.27
2022-12-20T10:28:58.184Z,15.48
2022-12-20T10:31:25.497Z,15.10
2022-12-20T10:33:52.432Z,15.70
2022-12-20T10:36:25.862Z,14.73
2022-12-20T10:38:59.315Z,15.40
2022-12-20T10:41:31.606Z,15.13
2022-12-20T10:44:16.268Z,15.32
2022-12-20T10:46:46.771Z,15.25
2022-12-20T10:49:37.068Z,15.05
2022-12-20T10:52:09.603Z,14.55
2022-12-20T10:54:41.432Z,15.18
2022-12-20T10:57:21.788Z,15.40
2022-12-20T10:59:54.514Z,15.40
2022-12-20T11:02:37.196Z,15.30
2022-12-20T11:05:09.962Z,14.63
2022-12-20T11:07:38.302Z,14.60
2022-12-20T11:10:21.385Z,15.35
2022-12-20T11:12:55.145Z,14.85
2022-12-20T11:15:42.787Z,14.75
2022-12-20T11:18:15.543Z,14.90
2022-12-20T11:21:01.165Z,15.25
2022-12-20T11:23:32.685Z,14.68
2022-12-20T11:26:08.845Z,14.85
2022-12-20T11:28:44.688Z,14.57
2022-12-20T11:31:33.076Z,14.15
2022-12-20T11:34:44.453Z,14.50
2022-12-20T11:37:54.454Z,15.80
2022-12-20T11:40:29.647Z,13.95
2022-12-20T11:43:17.754Z,15.55
2022-12-20T11:46:18.181Z,13.98
2022-12-20T11:49:15.676Z,14.90
2022-12-20T11:52:11.693Z,14.82
2022-12-20T11:54:43.222Z,14.68
2022-12-20T11:57:26.935Z,14.27
2022-12-20T11:59:57.945Z,14.55
2022-12-20T12:02:44.969Z,15.07
2022-12-20T12:05:25.434Z,14.60
2022-12-20T12:07:55.272Z,14.20
2022-12-20T12:10:32.611Z,14.05
2022-12-20T12:13:07.384Z,14.45
2022-12-20T12:15:46.604Z,14.27
2022-12-20T12:18:19.187Z,14.20
2022-12-20T12:20:48.688Z,14.50
2022-12-20T12:23:29.688Z,14.10
2022-12-20T12:26:05.319Z,13.30
2022-12-20T12:28:33.170Z,13.25
2022-12-20T12:31:18.323Z,13.57
2022-12-20T12:34:17.199Z,13.10
2022-12-20T12:37:02.500Z,13.65
2022-12-20T12:39:54.155Z,12.75
2022-12-20T12:42:42.686Z,13.40
2022-12-20T12:45:28.230Z,13.57
2022-12-20T12:48:01.369Z,12.88
2022-12-20T12:50:39.601Z,13.18
2022-12-20T12:53:15.299Z,12.88
2022-12-20T12:55:47.509Z,13.05
2022-12-20T12:58:23.385Z,13.43
2022-12-20T13:01:09.286Z,13.32
2022-12-20T13:03:52.895Z,12.65
2022-12-20T13:06:44.277Z,13.48
2022-12-20T13:09:19.266Z,13.40
2022-12-20T13:14:14.483Z,12.80
2022-12-20T13:17:10.923Z,13.45
2022-12-20T13:19:28.959Z,13.00
2022-12-20T13:21:59.110Z,12.45
2022-12-20T13:24:48.758Z,13.68
2022-12-20T13:27:37.240Z,13.95
2022-12-20T13:30:17.387Z,12.55
2022-12-20T13:32:47.067Z,12.75
2022-12-20T13:35:26.029Z,13.00
2022-12-20T13:38:07.491Z,12.82
2022-12-20T13:40:43.035Z,14.15
2022-12-20T13:43:20.285Z,12.52
2022-12-20T13:45:51.813Z,12.85
2022-12-20T13:48:39.969Z,13.48
2022-12-20T13:51:08.220Z,13.68
2022-12-20T13:53:35.220Z,13.05
2022-12-20T13:56:28.000Z,12.75
2022-12-20T13:58:55.751Z,13.55
2022-12-20T14:01:24.463Z,12.63
2022-12-20T14:03:52.762Z,12.02
2022-12-20T14:06:26.256Z,12.48
2022-12-20T14:08:53.658Z,12.43
2022-12-20T14:11:22.760Z,12.55
2022-12-20T14:13:56.662Z,12.77
2022-12-20T14:16:25.836Z,12.40
2022-12-20T14:19:02.008Z,12.13
2022-12-20T14:21:29.155Z,12.80
2022-12-20T14:23:57.388Z,12.75
2022-12-20T14:26:35.995Z,12.80
2022-12-20T14:29:04.382Z,12.27
2022-12-20T14:31:47.023Z,12.57
2022-12-20T14:34:18.915Z,12.65
2022-12-20T14:36:48.194Z,13.05
2022-12-20T14:39:34.763Z,12.88
2022-12-20T14:42:02.219Z,13.00
2022-12-20T14:44:30.570Z,12.27
2022-12-20T14:46:59.452Z,12.57
2022-12-20T14:49:31.733Z,12.00
2022-12-20T14:52:30.270Z,11.95
2022-12-20T14:55:07.682Z,12.18
2022-12-20T14:57:35.255Z,11.88
2022-12-20T15:00:13.552Z,12.27
2022-12-20T15:02:41.901Z,11.75
2022-12-20T15:05:33.903Z,11.98
2022-12-20T15:08:13.655Z,12.45
2022-12-20T15:11:07.143Z,12.20
2022-12-20T15:13:38.018Z,11.52
2022-12-20T15:16:25.909Z,11.88
2022-12-20T15:18:57.993Z,11.85
2022-12-20T15:21:33.912Z,11.65
2022-12-20T15:24:02.344Z,10.55
2022-12-20T15:26:31.124Z,11.77
2022-12-20T15:28:57.796Z,11.25
2022-12-20T15:31:32.578Z,11.88
2022-12-20T15:34:02.372Z,11.15
2022-12-20T15:36:29.763Z,11.13
2022-12-20T15:39:14.151Z,12.70
2022-12-20T15:41:43.857Z,11.80
2022-12-20T15:44:18.938Z,12.05
2022-12-20T15:46:45.765Z,11.82
2022-12-20T15:49:31.905Z,12.23
2022-12-20T15:51:59.020Z,12.48
2022-12-20T15:54:34.574Z,11.90
2022-12-20T15:57:09.525Z,11.75
2022-12-20T16:02:27.501Z,11.45
2022-12-20T16:04:55.503Z,12.07
2022-12-20T16:07:22.397Z,11.50
2022-12-20T16:09:49.120Z,11.73
2022-12-20T16:12:23.681Z,12.60
2022-12-20T16:14:51.407Z,12.30
2022-12-20T16:17:18.019Z,11.27
2022-12-20T16:19:44.809Z,11.43
2022-12-20T16:22:24.401Z,11.98
2022-12-20T16:24:52.220Z,12.15
2022-12-20T16:27:19.159Z,11.57
2022-12-20T16:29:46.274Z,11.90
2022-12-20T16:32:21.858Z,11.57
2022-12-20T16:34:52.097Z,12.02
2022-12-20T16:37:19.011Z,11.43
2022-12-20T16:39:45.767Z,11.07
2022-12-20T16:42:17.563Z,11.32
2022-12-20T16:44:45.822Z,12.30
2022-12-20T16:47:13.655Z,12.15
2022-12-20T16:49:45.799Z,11.70
2022-12-20T16:52:18.220Z,12.45
2022-12-20T16:54:44.896Z,11.90
2022-12-20T16:57:11.519Z,11.48
2022-12-20T16:59:38.477Z,11.32
2022-12-20T17:02:23.658Z,11.45
2022-12-20T17:04:50.953Z,12.73
2022-12-20T17:07:17.586Z,12.02
2022-12-20T17:12:28.469Z,12.65
2022-12-20T17:14:55.183Z,12.65
2022-12-20T17:17:21.826Z,13.15
2022-12-20T17:19:48.511Z,13.30
2022-12-20T17:22:23.019Z,12.73
2022-12-20T17:24:49.728Z,13.70
2022-12-20T17:27:16.537Z,12.95
2022-12-20T17:29:43.239Z,14.13
2022-12-20T17:32:28.190Z,13.15
2022-12-20T17:34:55.321Z,13.95
2022-12-20T17:37:22.088Z,14.35
2022-12-20T17:39:49.005Z,14.05
2022-12-20T17:42:16.952Z,13.43
2022-12-20T17:44:43.824Z,14.63
2022-12-20T17:47:11.835Z,15.20
2022-12-20T17:49:38.640Z,14.35
2022-12-20T17:52:05.265Z,15.02
2022-12-20T17:54:39.093Z,14.52
2022-12-20T17:57:12.321Z,14.65
2022-12-20T17:59:38.914Z,14.18
2022-12-20T18:02:20.096Z,14.60
2022-12-20T18:04:47.347Z,14.98
2022-12-20T18:07:14.092Z,14.48
2022-12-20T18:09:40.704Z,14.40
2022-12-20T18:12:08.648Z,14.05
2022-12-20T18:14:35.338Z,14.13
2022-12-20T18:17:02.019Z,14.35
2022-12-20T18:19:28.639Z,13.88
2022-12-20T18:21:55.403Z,14.13
2022-12-20T18:24:22.101Z,13.50
2022-12-20T18:26:48.739Z,14.02
2022-12-20T18:29:15.384Z,13.98
2022-12-20T18:31:42.029Z,15.25
2022-12-20T18:34:10.027Z,15.05
2022-12-20T18:36:37.639Z,15.90
2022-12-20T18:39:06.451Z,16.00
2022-12-20T18:41:33.360Z,16.05
2022-12-20T18:44:02.188Z,15.50
2022-12-20T18:46:29.168Z,14.90
2022-12-20T18:48:58.144Z,14.73
2022-12-20T18:51:29.655Z,14.43
2022-12-20T18:53:57.716Z,14.27
2022-12-20T18:56:28.778Z,14.85
2022-12-20T18:58:56.404Z,14.55
2022-12-20T19:01:29.519Z,13.93
2022-12-20T19:03:56.293Z,14.45
2022-12-20T19:06:23.531Z,14.20
2022-12-20T19:08:50.446Z,13.95
2022-12-20T19:11:19.937Z,15.00
2022-12-20T19:13:46.760Z,13.70
2022-12-20T19:16:14.538Z,13.38
2022-12-20T19:18:42.335Z,13.68
2022-12-20T19:21:10.355Z,12.88
2022-12-20T19:23:38.532Z,12.68
2022-12-20T19:26:07.726Z,13.70
2022-12-20T19:28:34.894Z,13.93
2022-12-20T19:31:21.249Z,12.73
2022-12-20T19:33:48.993Z,13.38
2022-12-20T19:36:17.630Z,12.65
2022-12-20T19:38:55.866Z,12.65
2022-12-20T19:41:24.548Z,12.98
2022-12-20T19:43:51.749Z,13.27
2022-12-20T19:46:28.092Z,13.02
2022-12-20T19:48:56.452Z,12.68
2022-12-20T19:51:23.718Z,12.88
2022-12-20T19:53:51.725Z,12.90
2022-12-20T19:56:20.872Z,12.98
2022-12-20T19:58:47.930Z,13.30
2022-12-20T20:01:15.734Z,12.38
2022-12-20T20:03:42.547Z,13.38
2022-12-20T20:06:10.187Z,14.25
2022-12-20T20:08:36.820Z,13.93
2022-12-20T20:11:09.313Z,13.90
2022-12-20T20:13:37.408Z,13.07
2022-12-20T20:16:04.960Z,13.18
2022-12-20T20:18:34.760Z,13.43
2022-12-20T20:21:10.703Z,12.38
2022-12-20T20:23:37.780Z,12.52
2022-12-20T20:26:10.363Z,12.50
2022-12-20T20:28:44.604Z,12.30
2022-12-20T20:31:13.953Z,12.98
2022-12-20T20:33:41.013Z,11.75
2022-12-20T20:36:08.237Z,12.35
2022-12-20T20:38:35.336Z,12.80
2022-12-20T20:41:02.030Z,12.30
2022-12-20T20:43:29.798Z,12.13
2022-12-20T20:45:56.998Z,12.07
2022-12-20T20:48:23.991Z,11.55
2022-12-20T20:50:50.679Z,12.45
2022-12-20T20:53:17.361Z,11.45
2022-12-20T20:55:44.140Z,11.35
2022-12-20T20:58:10.885Z,11.75
2022-12-20T21:00:39.633Z,11.07
2022-12-20T21:03:06.561Z,11.27
2022-12-20T21:08:21.822Z,11.52
2022-12-20T21:10:51.533Z,11.40
2022-12-20T21:13:18.485Z,11.60
2022-12-20T21:15:46.496Z,11.50
2022-12-20T21:18:13.791Z,11.13
2022-12-20T21:20:40.555Z,11.70
2022-12-20T21:23:07.276Z,11.35
2022-12-20T21:25:34.181Z,11.38
2022-12-20T21:28:00.914Z,11.40
2022-12-20T21:30:27.773Z,11.27
2022-12-20T21:32:54.585Z,11.18
2022-12-20T21:35:21.438Z,11.27
2022-12-20T21:37:48.155Z,10.80
2022-12-20T21:40:14.919Z,11.07
2022-12-20T21:42:41.531Z,11.10
2022-12-20T21:45:09.888Z,11.02
2022-12-20T21:47:36.548Z,10.77
2022-12-20T21:50:03.348Z,11.10
2022-12-20T21:52:30.437Z,11.13
2022-12-20T21:54:57.121Z,11.15
2022-12-20T21:57:23.780Z,10.63
2022-12-20T21:59:50.693Z,11.50
2022-12-20T22:02:17.405Z,10.88
2022-12-20T22:04:44.701Z,10.68
2022-12-20T22:07:11.445Z,11.00
2022-12-20T22:09:38.078Z,10.88
2022-12-20T22:12:04.776Z,11.02
2022-12-20T22:14:31.395Z,11.27
2022-12-20T22:16:58.142Z,12.00
2022-12-20T22:19:24.816Z,11.35
2022-12-20T22:21:57.728Z,11.60
2022-12-20T22:24:25.404Z,10.77
2022-12-20T22:26:52.054Z,11.38
2022-12-20T22:29:18.844Z,11.55
2022-12-20T22:31:46.047Z,11.40
2022-12-20T22:34:12.756Z,11.55
2022-12-20T22:36:39.467Z,10.85
2022-12-20T22:39:06.083Z,11.20
2022-12-20T22:41:34.989Z,11.00
2022-12-20T22:44:01.925Z,10.80
2022-12-20T22:46:29.722Z,10.68
2022-12-20T22:48:57.773Z,10.65
2022-12-20T22:51:27.396Z,11.13
2022-12-20T22:53:57.325Z,10.38
2022-12-20T22:56:24.176Z,10.80
2022-12-20T22:58:50.997Z,10.40
2022-12-20T23:01:20.060Z,11.30
2022-12-20T23:03:47.112Z,10.93
2022-12-20T23:06:16.091Z,9.88
2022-12-20T23:08:43.442Z,10.20
2022-12-20T23:11:36.565Z,10.65
2022-12-20T23:14:22.981Z,9.88
2022-12-20T23:16:50.234Z,13.40
2022-12-20T23:19:16.924Z,16.02
2022-12-20T23:22:02.266Z,18.23
2022-12-20T23:26:55.780Z,16.70
2022-12-20T23:29:22.428Z,15.35
2022-12-20T23:31:49.254Z,15.00
2022-12-20T23:34:15.967Z,14.57
2022-12-20T23:36:42.637Z,13.93
2022-12-20T23:39:09.451Z,13.93
2022-12-20T23:41:36.031Z,13.80
2022-12-20T23:44:06.921Z,13.30
2022-12-20T23:46:34.279Z,13.82
2022-12-20T23:49:01.021Z,12.55
2022-12-20T23:51:27.698Z,13.38
2022-12-20T23:53:54.573Z,12.27
2022-12-20T23:56:22.464Z,12.63
2022-12-20T23:58:53.951Z,12.50
